createdAt,value
2023-02-26T00:01:26.615Z,81.37
2023-02-26T00:03:56.081Z,80.80
2023-02-26T00:06:25.099Z,80.55
2023-02-26T00:08:52.622Z,79.14
2023-02-26T00:11:20.381Z,78.22
2023-02-26T00:13:47.587Z,78.20
2023-02-26T00:16:31.837Z,78.28
2023-02-26T00:19:01.921Z,78.26
2023-02-26T00:21:30.074Z,77.60
2023-02-26T00:23:58.394Z,77.68
2023-02-26T00:26:27.218Z,77.24
2023-02-26T00:28:54.689Z,77.44
2023-02-26T00:31:24.993Z,77.19
2023-02-26T00:33:56.066Z,77.06
2023-02-26T00:36:24.968Z,77.02
2023-02-26T00:39:19.926Z,77.13
2023-02-26T00:41:48.197Z,77.20
2023-02-26T00:44:15.338Z,77.35
2023-02-26T00:47:14.665Z,77.42
2023-02-26T00:50:13.788Z,77.66
2023-02-26T00:52:54.357Z,77.65
2023-02-26T00:55:21.354Z,77.59
2023-02-26T00:57:48.261Z,77.43
2023-02-26T01:00:16.129Z,77.51
2023-02-26T01:02:44.055Z,78.42
2023-02-26T01:05:12.000Z,78.76
2023-02-26T01:07:58.616Z,79.24
2023-02-26T01:10:26.101Z,79.60
2023-02-26T01:12:53.323Z,80.36
2023-02-26T01:15:20.467Z,80.06
2023-02-26T01:18:05.951Z,80.00
2023-02-26T01:20:50.938Z,80.65
2023-02-26T01:23:24.426Z,81.64
2023-02-26T01:25:59.198Z,81.52
2023-02-26T01:28:26.801Z,82.10
2023-02-26T01:31:00.930Z,81.93
2023-02-26T01:33:33.228Z,81.90
2023-02-26T01:36:23.114Z,81.50
2023-02-26T01:39:25.883Z,81.20
2023-02-26T01:41:55.875Z,80.61
2023-02-26T01:44:22.695Z,80.13
2023-02-26T01:47:01.909Z,80.00
2023-02-26T01:49:29.081Z,79.91
2023-02-26T01:52:00.917Z,79.78
2023-02-26T01:54:32.246Z,79.54
2023-02-26T01:57:12.645Z,79.42
2023-02-26T01:59:48.464Z,79.32
2023-02-26T02:02:19.181Z,79.05
2023-02-26T02:04:47.589Z,78.48
2023-02-26T02:07:14.853Z,78.39
2023-02-26T02:09:42.853Z,78.31
2023-02-26T02:12:37.480Z,78.27
2023-02-26T02:15:13.547Z,78.25
2023-02-26T02:18:02.823Z,77.58
2023-02-26T02:20:51.772Z,76.94
2023-02-26T02:23:33.722Z,77.31
2023-02-26T02:26:38.084Z,77.38
2023-02-26T02:29:26.598Z,77.80
2023-02-26T02:32:11.930Z,77.37
2023-02-26T02:34:46.361Z,77.33
2023-02-26T02:37:51.489Z,77.48
2023-02-26T02:40:26.581Z,77.72
2023-02-26T02:43:03.546Z,78.25
2023-02-26T02:45:41.104Z,78.40
2023-02-26T02:48:18.248Z,78.49
2023-02-26T02:50:52.321Z,78.36
2023-02-26T02:53:33.541Z,78.48
2023-02-26T02:56:34.837Z,78.48
2023-02-26T02:59:20.812Z,78.42
2023-02-26T03:01:57.574Z,78.46
2023-02-26T03:04:25.158Z,78.61
2023-02-26T03:06:51.968Z,78.51
2023-02-26T03:09:18.986Z,78.75
2023-02-26T03:11:45.760Z,80.35
2023-02-26T03:14:15.144Z,80.24
2023-02-26T03:17:20.114Z,80.07
2023-02-26T03:20:08.871Z,79.49
2023-02-26T03:22:43.665Z,78.34
2023-02-26T03:25:29.240Z,78.53
2023-02-26T03:28:25.622Z,78.46
2023-02-26T03:31:00.311Z,78.29
2023-02-26T03:34:06.097Z,77.77
2023-02-26T03:36:40.942Z,77.43
2023-02-26T03:39:28.469Z,76.94
2023-02-26T03:42:05.819Z,76.69
2023-02-26T03:44:59.261Z,77.50
2023-02-26T03:47:28.081Z,78.21
2023-02-26T03:50:04.568Z,77.24
2023-02-26T03:52:39.466Z,76.81
2023-02-26T03:55:35.002Z,75.31
2023-02-26T03:58:25.202Z,74.83
2023-02-26T04:01:20.164Z,74.93
2023-02-26T04:04:07.612Z,75.62
2023-02-26T04:06:35.290Z,76.12
2023-02-26T04:09:04.644Z,76.39
2023-02-26T04:11:35.687Z,75.91
2023-02-26T04:14:02.616Z,75.16
2023-02-26T04:16:32.528Z,75.17
2023-02-26T04:18:59.422Z,75.41
2023-02-26T04:21:26.318Z,76.27
2023-02-26T04:23:53.270Z,76.26
2023-02-26T04:26:20.716Z,75.90
2023-02-26T04:28:48.502Z,75.89
2023-02-26T04:31:15.813Z,76.68
2023-02-26T04:33:42.842Z,76.80
2023-02-26T04:36:09.822Z,76.65
2023-02-26T04:38:36.925Z,76.33
2023-02-26T04:41:04.735Z,76.69
2023-02-26T04:43:31.673Z,76.95
2023-02-26T04:46:20.937Z,77.06
2023-02-26T04:48:47.940Z,76.91
2023-02-26T04:51:14.933Z,76.99
2023-02-26T04:53:41.830Z,77.11
2023-02-26T04:56:10.002Z,77.23
2023-02-26T04:58:36.962Z,77.23
2023-02-26T05:01:09.216Z,77.08
2023-02-26T05:03:36.116Z,76.83
2023-02-26T05:06:02.939Z,76.65
2023-02-26T05:08:29.749Z,75.89
2023-02-26T05:10:56.783Z,75.58
2023-02-26T05:13:23.617Z,75.21
2023-02-26T05:15:50.554Z,75.09
2023-02-26T05:18:17.437Z,75.23
2023-02-26T05:20:44.323Z,75.84
2023-02-26T05:23:11.171Z,76.05
2023-02-26T05:25:39.235Z,76.37
2023-02-26T05:28:06.220Z,77.04
2023-02-26T05:30:33.199Z,77.65
2023-02-26T05:33:00.291Z,77.22
2023-02-26T05:35:27.070Z,78.34
2023-02-26T05:37:54.046Z,78.79
2023-02-26T05:40:20.841Z,78.74
2023-02-26T05:42:47.632Z,78.79
2023-02-26T05:45:14.634Z,79.25
2023-02-26T05:47:41.594Z,79.68
2023-02-26T05:50:09.373Z,79.42
2023-02-26T05:52:36.244Z,79.75
2023-02-26T05:55:04.161Z,80.26
2023-02-26T05:57:31.301Z,79.87
2023-02-26T05:59:58.163Z,79.60
2023-02-26T06:02:26.358Z,79.28
2023-02-26T06:04:53.208Z,78.94
2023-02-26T06:07:20.051Z,78.90
2023-02-26T06:09:46.930Z,79.41
2023-02-26T06:12:13.722Z,78.48
2023-02-26T06:14:40.624Z,78.07
2023-02-26T06:17:08.085Z,77.82
2023-02-26T06:19:34.924Z,78.21
2023-02-26T06:22:02.007Z,78.25
2023-02-26T06:24:28.845Z,77.38
2023-02-26T06:26:55.696Z,76.73
2023-02-26T06:29:23.555Z,77.18
2023-02-26T06:31:50.626Z,77.49
2023-02-26T06:34:17.629Z,76.33
2023-02-26T06:36:44.919Z,75.94
2023-02-26T06:39:13.015Z,74.97
2023-02-26T06:41:40.192Z,75.29
2023-02-26T06:44:07.024Z,75.43
2023-02-26T06:46:33.984Z,74.37
2023-02-26T06:49:00.867Z,74.82
2023-02-26T06:51:27.960Z,74.18
2023-02-26T06:53:55.057Z,73.66
2023-02-26T06:56:24.249Z,73.93
2023-02-26T06:58:51.760Z,74.19
2023-02-26T07:01:18.874Z,74.10
2023-02-26T07:03:45.798Z,74.17
2023-02-26T07:06:26.542Z,73.90
2023-02-26T07:08:53.898Z,73.87
2023-02-26T07:11:20.817Z,73.95
2023-02-26T07:13:47.707Z,74.54
2023-02-26T07:16:14.642Z,73.46
2023-02-26T07:18:41.705Z,73.38
2023-02-26T07:21:08.839Z,74.00
2023-02-26T07:23:35.882Z,73.58
2023-02-26T07:26:03.034Z,74.19
2023-02-26T07:28:30.240Z,73.87
2023-02-26T07:30:58.008Z,73.26
2023-02-26T07:33:26.637Z,74.14
2023-02-26T07:35:53.584Z,73.01
2023-02-26T07:38:21.017Z,73.70
2023-02-26T07:40:48.152Z,74.49
2023-02-26T07:43:15.144Z,74.10
2023-02-26T07:45:42.037Z,73.92
2023-02-26T07:48:08.907Z,73.81
2023-02-26T07:50:36.092Z,74.39
2023-02-26T07:53:03.151Z,73.98
2023-02-26T07:55:30.225Z,73.93
2023-02-26T07:57:57.029Z,72.86
2023-02-26T08:00:24.101Z,72.76
2023-02-26T08:02:51.140Z,71.93
2023-02-26T08:05:18.538Z,71.35
2023-02-26T08:07:45.337Z,72.13
2023-02-26T08:10:12.341Z,71.48
2023-02-26T08:12:39.274Z,71.45
2023-02-26T08:15:06.785Z,70.56
2023-02-26T08:17:34.069Z,70.74
2023-02-26T08:20:00.945Z,69.95
2023-02-26T08:22:27.848Z,70.01
2023-02-26T08:24:54.661Z,69.85
2023-02-26T08:27:21.548Z,68.56
2023-02-26T08:29:50.445Z,68.02
2023-02-26T08:32:20.083Z,67.42
2023-02-26T08:34:47.211Z,67.11
2023-02-26T08:37:14.318Z,67.13
2023-02-26T08:39:41.664Z,66.17
2023-02-26T08:42:09.937Z,65.91
2023-02-26T08:44:37.033Z,66.16
2023-02-26T08:47:03.979Z,67.10
2023-02-26T08:49:31.102Z,65.49
2023-02-26T08:51:58.107Z,64.87
2023-02-26T08:54:25.425Z,65.13
2023-02-26T08:56:57.987Z,64.93
2023-02-26T08:59:25.774Z,63.81
2023-02-26T09:01:52.983Z,64.22
2023-02-26T09:04:19.855Z,63.02
2023-02-26T09:06:46.770Z,62.62
2023-02-26T09:09:13.724Z,62.57
2023-02-26T09:11:40.700Z,61.92
2023-02-26T09:14:07.490Z,61.09
2023-02-26T09:16:36.914Z,61.16
2023-02-26T09:19:05.179Z,61.04
2023-02-26T09:21:32.517Z,61.22
2023-02-26T09:23:59.613Z,61.43
2023-02-26T09:26:26.772Z,61.37
2023-02-26T09:28:53.904Z,60.25
2023-02-26T09:31:21.995Z,60.27
2023-02-26T09:33:52.644Z,60.15
2023-02-26T09:36:19.525Z,59.42
2023-02-26T09:38:48.446Z,59.54
2023-02-26T09:41:31.872Z,59.91
2023-02-26T09:44:07.778Z,59.58
2023-02-26T09:47:01.454Z,58.67
2023-02-26T09:49:49.559Z,59.25
2023-02-26T09:52:49.058Z,58.82
2023-02-26T09:55:25.396Z,58.37
2023-02-26T09:57:58.263Z,57.69
2023-02-26T10:00:32.250Z,57.33
2023-02-26T10:03:17.828Z,57.19
2023-02-26T10:06:29.588Z,56.08
2023-02-26T10:08:56.575Z,54.64
2023-02-26T10:11:40.023Z,54.88
2023-02-26T10:14:13.222Z,53.88
2023-02-26T10:16:44.071Z,53.19
2023-02-26T10:19:17.274Z,53.91
2023-02-26T10:22:18.738Z,53.35
2023-02-26T10:24:51.561Z,52.93
2023-02-26T10:28:01.907Z,53.04
2023-02-26T10:30:44.117Z,51.96
2023-02-26T10:33:29.682Z,52.42
2023-02-26T10:36:10.421Z,53.02
2023-02-26T10:38:43.349Z,52.10
2023-02-26T10:41:15.890Z,48.87
2023-02-26T10:43:57.944Z,47.65
2023-02-26T10:46:46.294Z,48.80
2023-02-26T10:49:31.842Z,48.04
2023-02-26T10:52:10.618Z,47.52
2023-02-26T10:54:44.624Z,47.27
2023-02-26T10:57:30.144Z,46.17
2023-02-26T10:59:56.926Z,46.46
2023-02-26T11:02:42.873Z,46.83
2023-02-26T11:05:23.832Z,47.89
2023-02-26T11:08:15.531Z,47.69
2023-02-26T11:10:47.494Z,47.44
2023-02-26T11:13:14.291Z,46.97
2023-02-26T11:15:41.920Z,47.04
2023-02-26T11:18:17.080Z,47.23
2023-02-26T11:20:46.227Z,46.07
2023-02-26T11:23:17.660Z,46.73
2023-02-26T11:25:45.400Z,46.98
2023-02-26T11:28:32.383Z,47.53
2023-02-26T11:31:05.427Z,46.87
2023-02-26T11:33:37.825Z,46.73
2023-02-26T11:36:11.557Z,46.92
2023-02-26T11:38:39.011Z,47.10
2023-02-26T11:41:07.192Z,47.58
2023-02-26T11:43:45.020Z,47.59
2023-02-26T11:46:13.259Z,47.87
2023-02-26T11:48:39.982Z,47.97
2023-02-26T11:51:08.667Z,49.16
2023-02-26T11:53:37.973Z,49.13
2023-02-26T11:56:11.988Z,49.23
2023-02-26T11:58:41.043Z,49.48
2023-02-26T12:01:11.696Z,49.60
2023-02-26T12:03:43.801Z,49.93
2023-02-26T12:06:21.544Z,49.43
2023-02-26T12:08:49.185Z,50.21
2023-02-26T12:11:38.568Z,49.88
2023-02-26T12:14:05.582Z,50.11
2023-02-26T12:16:47.145Z,50.75
2023-02-26T12:19:48.061Z,50.66
2023-02-26T12:22:20.803Z,49.86
2023-02-26T12:25:17.325Z,50.39
2023-02-26T12:28:06.873Z,50.67
2023-02-26T12:30:46.320Z,51.56
2023-02-26T12:33:52.279Z,52.41
2023-02-26T12:36:48.802Z,52.44
2023-02-26T12:39:53.961Z,53.68
2023-02-26T12:42:42.259Z,53.27
2023-02-26T12:45:38.476Z,53.54
2023-02-26T12:48:14.769Z,54.13
2023-02-26T12:51:11.265Z,54.34
2023-02-26T12:53:48.412Z,54.24
2023-02-26T12:56:29.709Z,54.41
2023-02-26T12:59:26.034Z,55.04
2023-02-26T13:02:05.479Z,54.87
2023-02-26T13:04:35.241Z,54.72
2023-02-26T13:07:11.771Z,55.46
2023-02-26T13:10:03.421Z,54.95
2023-02-26T13:12:45.525Z,55.68
2023-02-26T13:15:21.531Z,54.45
2023-02-26T13:17:57.438Z,54.70
2023-02-26T13:20:26.711Z,54.94
2023-02-26T13:22:59.614Z,54.47
2023-02-26T13:25:48.876Z,54.76
2023-02-26T13:28:26.378Z,54.41
2023-02-26T13:30:56.527Z,54.82
2023-02-26T13:33:28.327Z,55.07
2023-02-26T13:35:56.570Z,55.17
2023-02-26T13:38:29.516Z,55.26
2023-02-26T13:41:21.032Z,55.15
2023-02-26T13:44:17.815Z,55.75
2023-02-26T13:47:02.968Z,55.71
2023-02-26T13:49:38.660Z,55.67
2023-02-26T13:52:05.663Z,56.12
2023-02-26T13:55:02.795Z,56.17
2023-02-26T13:57:35.673Z,56.42
2023-02-26T14:00:34.365Z,56.37
2023-02-26T14:03:29.916Z,55.97
2023-02-26T14:06:23.321Z,56.05
2023-02-26T14:08:58.475Z,55.59
2023-02-26T14:11:45.941Z,55.28
2023-02-26T14:14:24.607Z,55.29
2023-02-26T14:17:18.743Z,55.17
2023-02-26T14:20:23.862Z,55.06
2023-02-26T14:23:09.578Z,55.13
2023-02-26T14:25:52.790Z,54.72
2023-02-26T14:28:25.542Z,54.84
2023-02-26T14:31:11.322Z,54.82
2023-02-26T14:33:46.760Z,54.82
2023-02-26T14:36:42.835Z,54.97
2023-02-26T14:39:22.469Z,55.24
2023-02-26T14:41:50.113Z,55.81
2023-02-26T14:44:23.843Z,55.93
2023-02-26T14:46:52.454Z,56.00
2023-02-26T14:49:26.473Z,56.64
2023-02-26T14:52:36.373Z,56.31
2023-02-26T14:55:04.935Z,56.88
2023-02-26T14:58:01.573Z,56.98
2023-02-26T15:01:19.425Z,57.08
2023-02-26T15:04:24.543Z,57.22
2023-02-26T15:07:18.668Z,57.25
2023-02-26T15:09:58.405Z,57.54
2023-02-26T15:12:31.294Z,57.03
2023-02-26T15:15:07.924Z,56.84
2023-02-26T15:17:52.928Z,57.18
2023-02-26T15:20:26.942Z,57.35
2023-02-26T15:23:05.969Z,56.99
2023-02-26T15:25:44.969Z,56.59
2023-02-26T15:28:19.178Z,56.75
2023-02-26T15:30:48.934Z,56.61
2023-02-26T15:33:20.437Z,56.95
2023-02-26T15:35:51.959Z,57.07
2023-02-26T15:38:19.322Z,56.97
2023-02-26T15:40:47.406Z,56.48
2023-02-26T15:43:23.937Z,56.30
2023-02-26T15:45:55.856Z,56.42
2023-02-26T15:48:29.475Z,56.03
2023-02-26T15:51:02.719Z,56.31
2023-02-26T15:53:43.766Z,56.28
2023-02-26T15:56:19.616Z,56.17
2023-02-26T15:58:50.901Z,56.30
2023-02-26T16:01:20.498Z,56.51
2023-02-26T16:03:47.614Z,56.29
2023-02-26T16:06:18.816Z,56.51
2023-02-26T16:08:45.793Z,56.99
2023-02-26T16:11:13.811Z,57.15
2023-02-26T16:13:43.685Z,57.33
2023-02-26T16:16:26.507Z,57.69
2023-02-26T16:18:55.391Z,58.05
2023-02-26T16:21:43.286Z,57.73
2023-02-26T16:24:17.590Z,58.49
2023-02-26T16:26:54.420Z,58.61
2023-02-26T16:29:24.725Z,58.73
2023-02-26T16:32:06.896Z,58.60
2023-02-26T16:34:52.530Z,59.19
2023-02-26T16:37:29.754Z,59.61
2023-02-26T16:40:11.648Z,59.60
2023-02-26T16:43:27.887Z,60.03
2023-02-26T16:45:57.095Z,60.08
2023-02-26T16:48:31.722Z,60.31
2023-02-26T16:51:06.699Z,60.46
2023-02-26T16:53:45.937Z,60.54
2023-02-26T16:56:18.161Z,60.76
2023-02-26T16:58:47.786Z,60.79
2023-02-26T17:01:18.179Z,60.76
2023-02-26T17:04:01.770Z,61.05
2023-02-26T17:06:31.437Z,61.19
2023-02-26T17:09:00.411Z,61.20
2023-02-26T17:11:33.427Z,61.41
2023-02-26T17:14:10.363Z,61.39
2023-02-26T17:16:37.620Z,61.06
2023-02-26T17:19:04.856Z,61.48
2023-02-26T17:21:32.468Z,61.62
2023-02-26T17:23:59.564Z,61.75
2023-02-26T17:26:26.568Z,61.72
2023-02-26T17:28:53.529Z,61.52
2023-02-26T17:31:21.553Z,61.58
2023-02-26T17:33:48.549Z,61.29
2023-02-26T17:36:18.760Z,61.62
2023-02-26T17:38:47.278Z,61.82
2023-02-26T17:41:18.550Z,61.45
2023-02-26T17:43:50.538Z,61.63
2023-02-26T17:46:20.703Z,61.68
2023-02-26T17:48:47.772Z,61.94
2023-02-26T17:51:17.850Z,61.76
2023-02-26T17:54:19.814Z,61.76
2023-02-26T17:56:37.647Z,61.90
2023-02-26T17:59:05.357Z,61.71
2023-02-26T18:01:32.285Z,62.21
2023-02-26T18:04:01.220Z,62.15
2023-02-26T18:06:31.221Z,62.40
2023-02-26T18:08:58.046Z,62.26
2023-02-26T18:11:26.306Z,62.69
2023-02-26T18:13:55.349Z,62.59
2023-02-26T18:16:28.972Z,62.42
2023-02-26T18:18:56.239Z,62.63
2023-02-26T18:21:23.032Z,62.62
2023-02-26T18:23:49.822Z,62.43
2023-02-26T18:26:22.912Z,62.53
2023-02-26T18:31:42.853Z,62.25
2023-02-26T18:34:09.854Z,62.00
2023-02-26T18:36:39.369Z,61.69
2023-02-26T18:39:11.215Z,61.66
2023-02-26T18:41:38.064Z,61.38
2023-02-26T18:44:05.019Z,61.29
2023-02-26T18:46:34.890Z,60.51
2023-02-26T18:49:01.859Z,59.98
2023-02-26T18:51:30.084Z,60.13
2023-02-26T18:53:57.043Z,60.46
2023-02-26T18:56:23.970Z,60.18
2023-02-26T18:58:50.762Z,60.00
2023-02-26T19:01:17.798Z,60.09
2023-02-26T19:03:44.659Z,60.37
2023-02-26T19:06:12.551Z,60.57
2023-02-26T19:08:39.509Z,60.28
2023-02-26T19:11:06.346Z,60.41
2023-02-26T19:13:34.627Z,61.03
2023-02-26T19:16:01.730Z,60.83
2023-02-26T19:18:28.624Z,61.21
2023-02-26T19:21:06.239Z,61.91
2023-02-26T19:23:41.615Z,61.83
2023-02-26T19:26:09.213Z,61.93
2023-02-26T19:28:38.502Z,61.95
2023-02-26T19:31:09.747Z,62.48
2023-02-26T19:33:36.784Z,62.57
2023-02-26T19:36:03.871Z,63.14
2023-02-26T19:38:30.725Z,63.70
2023-02-26T19:40:59.209Z,64.26
2023-02-26T19:43:26.086Z,64.05
2023-02-26T19:45:53.177Z,64.40
2023-02-26T19:48:21.276Z,65.07
2023-02-26T19:50:51.337Z,64.88
2023-02-26T19:53:19.476Z,65.18
2023-02-26T19:55:46.421Z,65.51
2023-02-26T19:58:14.191Z,65.76
2023-02-26T20:00:41.030Z,66.35
2023-02-26T20:03:08.325Z,66.17
2023-02-26T20:05:36.938Z,66.05
2023-02-26T20:08:04.124Z,66.72
2023-02-26T20:10:32.143Z,67.11
2023-02-26T20:12:59.127Z,67.68
2023-02-26T20:15:26.070Z,67.88
2023-02-26T20:17:52.958Z,68.21
2023-02-26T20:20:20.468Z,67.73
2023-02-26T20:22:47.339Z,67.91
2023-02-26T20:25:15.268Z,68.34
2023-02-26T20:27:42.885Z,68.88
2023-02-26T20:30:10.937Z,69.24
2023-02-26T20:32:38.366Z,69.43
2023-02-26T20:35:05.709Z,69.69
2023-02-26T20:37:32.602Z,69.85
2023-02-26T20:39:59.462Z,69.93
2023-02-26T20:42:29.134Z,70.15
2023-02-26T20:44:55.922Z,70.41
2023-02-26T20:47:22.914Z,70.68
2023-02-26T20:49:49.703Z,70.62
2023-02-26T20:52:16.592Z,71.00
2023-02-26T20:54:44.807Z,71.11
2023-02-26T20:57:12.447Z,71.00
2023-02-26T20:59:39.323Z,71.15
2023-02-26T21:02:06.149Z,71.40
2023-02-26T21:04:36.146Z,71.11
2023-02-26T21:07:17.695Z,71.33
2023-02-26T21:09:51.173Z,71.57
2023-02-26T21:12:19.105Z,71.85
2023-02-26T21:14:58.259Z,71.93
2023-02-26T21:17:46.056Z,71.81
2023-02-26T21:20:17.391Z,71.72
2023-02-26T21:22:46.068Z,72.23
2023-02-26T21:25:13.423Z,72.31
2023-02-26T21:27:41.075Z,72.16
2023-02-26T21:30:10.920Z,72.16
2023-02-26T21:32:37.822Z,72.16
2023-02-26T21:35:05.725Z,71.96
2023-02-26T21:37:33.529Z,72.13
2023-02-26T21:40:00.345Z,71.72
2023-02-26T21:42:31.209Z,71.61
2023-02-26T21:44:58.032Z,71.68
2023-02-26T21:47:24.915Z,71.33
2023-02-26T21:49:51.718Z,71.26
2023-02-26T21:52:18.516Z,71.36
2023-02-26T21:54:45.360Z,71.63
2023-02-26T21:57:12.239Z,71.16
2023-02-26T21:59:39.049Z,71.12
2023-02-26T22:02:06.049Z,71.13
2023-02-26T22:04:33.923Z,71.27
2023-02-26T22:07:00.926Z,71.39
2023-02-26T22:09:27.960Z,71.22
2023-02-26T22:11:54.950Z,70.97
2023-02-26T22:14:22.049Z,71.21
2023-02-26T22:16:49.015Z,70.82
2023-02-26T22:19:16.087Z,70.33
2023-02-26T22:21:43.061Z,70.39
2023-02-26T22:24:10.404Z,70.03
2023-02-26T22:26:37.429Z,70.35
2023-02-26T22:29:05.698Z,70.59
2023-02-26T22:31:32.888Z,70.63
2023-02-26T22:34:00.301Z,70.58
2023-02-26T22:36:29.527Z,70.60
2023-02-26T22:38:57.173Z,70.87
2023-02-26T22:41:24.334Z,71.45
2023-02-26T22:43:53.775Z,71.63
2023-02-26T22:46:23.209Z,71.43
2023-02-26T22:48:50.066Z,71.39
2023-02-26T22:51:17.181Z,71.77
2023-02-26T22:53:44.010Z,71.54
2023-02-26T22:56:11.132Z,71.56
2023-02-26T22:58:38.664Z,71.88
2023-02-26T23:01:07.318Z,71.68
2023-02-26T23:03:34.803Z,72.01
2023-02-26T23:06:01.765Z,72.35
2023-02-26T23:08:28.764Z,72.39
2023-02-26T23:10:57.535Z,72.72
2023-02-26T23:13:24.999Z,72.64
2023-02-26T23:15:52.246Z,73.13
2023-02-26T23:18:19.654Z,73.28
2023-02-26T23:20:48.436Z,73.64
2023-02-26T23:23:16.200Z,73.72
2023-02-26T23:25:43.858Z,74.30
2023-02-26T23:28:11.926Z,73.86
2023-02-26T23:30:39.454Z,74.06
2023-02-26T23:33:07.356Z,74.31
2023-02-26T23:35:35.239Z,73.98
2023-02-26T23:38:02.720Z,74.24
2023-02-26T23:40:30.186Z,74.36
2023-02-26T23:42:57.166Z,74.08
2023-02-26T23:45:24.437Z,74.42
2023-02-26T23:47:51.592Z,74.64
2023-02-26T23:50:18.534Z,74.53
2023-02-26T23:52:45.388Z,74.59
2023-02-26T23:55:12.752Z,74.87
2023-02-26T23:57:39.977Z,75.06
